Time;durP1;ratioP1;P1;durP2;ratioP2;P2;SDS_P1;SDS_P2;PMS_P1;PMS_P2;Temp;Humidity;BMP_temperature;BMP_pressure;BME280_temperature;BME280_humidity;BME280_pressure;Samples;Min_cycle;Max_cycle;Signal;HPM_P1;HPM_P2
2022/06/15 00:02:24;;;;;;;7.07;4.30;;;;;;;14.74;79.34;98937.97;5030876;28;20123;-85
2022/06/15 00:04:51;;;;;;;10.25;4.30;;;;;;;14.64;79.24;98932.97;5016032;28;20042;-88
2022/06/15 00:07:17;;;;;;;4.68;3.92;;;;;;;14.53;79.54;98924.41;5015806;28;20103;-87
2022/06/15 00:09:46;;;;;;;8.95;4.68;;;;;;;14.57;79.54;98938.28;5012555;28;20055;-86
2022/06/15 00:12:12;;;;;;;8.23;4.18;;;;;;;14.33;79.40;98898.66;4992013;28;20042;-88
2022/06/15 00:14:39;;;;;;;5.83;4.00;;;;;;;14.37;79.53;98903.44;5010953;28;20049;-87
2022/06/15 00:17:05;;;;;;;9.50;4.50;;;;;;;14.53;79.28;98937.34;5013549;28;20040;-87
2022/06/15 00:19:32;;;;;;;5.80;4.05;;;;;;;14.53;79.68;98937.34;5011474;28;20402;-88
2022/06/15 00:21:58;;;;;;;9.45;4.38;;;;;;;14.40;79.49;98924.75;5028095;28;20045;-88
2022/06/15 00:24:24;;;;;;;7.60;4.07;;;;;;;14.47;79.28;98936.78;5023743;28;20029;-87
2022/06/15 00:26:50;;;;;;;6.97;4.20;;;;;;;14.19;78.92;98900.97;5011966;28;20292;-87
2022/06/15 00:29:18;;;;;;;7.38;4.00;;;;;;;14.40;79.21;98930.25;5028588;28;20048;-88
2022/06/15 00:31:45;;;;;;;17.15;4.25;;;;;;;14.38;79.00;98932.56;4994813;28;20129;-87
2022/06/15 00:34:12;;;;;;;18.15;4.55;;;;;;;14.30;79.09;98932.34;5011193;28;20069;-89
2022/06/15 00:36:38;;;;;;;6.30;4.15;;;;;;;14.23;78.77;98923.88;5012476;28;20095;-88
2022/06/15 00:39:05;;;;;;;7.73;4.07;;;;;;;14.38;78.78;98960.88;5015580;28;20069;-88
2022/06/15 00:41:36;;;;;;;9.57;4.20;;;;;;;14.19;78.65;98935.91;5011028;28;20041;-88
2022/06/15 00:44:21;;;;;;;11.60;3.95;;;;;;;14.15;77.99;98926.78;5010700;28;20034;-88
2022/06/15 00:46:59;;;;;;;8.80;4.10;;;;;;;14.31;78.86;98955.16;5001696;28;20456;-88
2022/06/15 00:49:35;;;;;;;10.05;4.20;;;;;;;14.19;78.61;98941.41;5003528;28;20054;-87
2022/06/15 00:52:19;;;;;;;7.65;4.38;;;;;;;14.29;79.31;98958.22;5010890;28;20045;-86
2022/06/15 00:54:49;;;;;;;8.93;4.25;;;;;;;14.07;79.36;98936.72;5011337;28;20046;-86
2022/06/15 00:57:15;;;;;;;8.18;4.07;;;;;;;14.10;78.69;98955.28;5010751;28;20049;-88
2022/06/15 00:59:56;;;;;;;12.00;4.20;;;;;;;14.19;78.59;98963.41;5012431;28;20093;-88
2022/06/15 01:02:23;;;;;;;8.85;3.95;;;;;;;14.07;78.03;98956.78;5023673;28;20579;-88
2022/06/15 01:04:56;;;;;;;15.93;4.25;;;;;;;14.01;78.68;98935.38;5033312;28;20087;-87
2022/06/15 01:07:25;;;;;;;13.70;4.78;;;;;;;14.19;78.80;98960.66;5051382;28;20048;-86
2022/06/15 01:10:12;;;;;;;8.48;4.60;;;;;;;14.00;78.66;98934.56;5049856;28;20041;-87
2022/06/15 01:12:55;;;;;;;6.72;3.90;;;;;;;14.09;77.94;98964.69;5017482;28;20501;-87
2022/06/15 01:15:31;;;;;;;11.95;4.45;;;;;;;14.02;78.40;98953.47;5049980;28;20486;-88
2022/06/15 01:18:16;;;;;;;9.77;4.50;;;;;;;14.13;78.46;98965.59;5050527;28;20052;-87
2022/06/15 01:20:48;;;;;;;10.00;4.03;;;;;;;14.06;78.02;98959.88;5034182;28;20517;-88
2022/06/15 01:23:52;;;;;;;8.20;4.10;;;;;;;14.02;78.46;98950.72;5052973;28;20166;-86
2022/06/15 01:26:21;;;;;;;7.25;4.10;;;;;;;13.96;78.08;98960.31;5033373;28;20033;-87
2022/06/15 01:28:54;;;;;;;10.15;4.55;;;;;;;13.78;78.53;98935.84;5051412;28;20110;-88
2022/06/15 01:32:04;;;;;;;9.18;4.22;;;;;;;13.93;78.74;98958.28;5050313;28;20045;-87
2022/06/15 01:35:05;;;;;;;9.75;4.60;;;;;;;13.88;78.73;98959.31;4981456;28;20046;-87
2022/06/15 01:38:20;;;;;;;8.52;4.30;;;;;;;13.82;79.28;98950.50;4971645;28;20035;-87
2022/06/15 01:41:14;;;;;;;11.73;4.57;;;;;;;13.89;79.08;98966.41;4935600;28;20050;-87
2022/06/15 01:43:50;;;;;;;8.73;4.25;;;;;;;13.70;79.07;98938.69;4973731;28;20586;-88
2022/06/15 01:46:17;;;;;;;13.23;4.65;;;;;;;13.81;79.16;98954.38;4971190;28;20082;-86
2022/06/15 01:48:48;;;;;;;9.05;4.10;;;;;;;13.69;79.13;98928.84;4989865;28;20141;-86
2022/06/15 01:51:20;;;;;;;5.75;4.00;;;;;;;13.75;79.28;98935.72;4962041;28;20054;-87
2022/06/15 01:54:03;;;;;;;9.68;4.28;;;;;;;13.89;78.68;98960.09;4938347;28;20078;-88
2022/06/15 01:56:46;;;;;;;7.95;4.32;;;;;;;13.73;78.97;98927.81;4953616;28;20047;-87
2022/06/15 01:59:49;;;;;;;8.65;4.18;;;;;;;13.80;78.30;98941.78;4951467;28;20151;-87
2022/06/15 02:02:21;;;;;;;12.48;4.45;;;;;;;13.86;78.89;98948.66;4941895;28;20635;-86
2022/06/15 02:05:13;;;;;;;10.80;4.47;;;;;;;13.91;79.04;98952.31;4970255;28;20047;-87
2022/06/15 02:08:06;;;;;;;9.70;4.40;;;;;;;13.95;78.52;98947.75;4929782;28;20134;-86
2022/06/15 02:10:41;;;;;;;6.25;4.07;;;;;;;13.95;78.46;98961.50;4930103;28;20062;-88
2022/06/15 02:13:16;;;;;;;16.35;4.30;;;;;;;13.93;77.85;98956.31;4956149;28;20054;-88
2022/06/15 02:16:11;;;;;;;5.22;3.70;;;;;;;13.84;77.39;98942.72;4958817;28;20034;-87
2022/06/15 02:18:46;;;;;;;7.07;3.53;;;;;;;13.84;77.47;98950.97;4984101;28;20046;-89
2022/06/15 02:21:19;;;;;;;7.05;3.70;;;;;;;13.97;77.27;98962.75;5002864;28;20132;-88
2022/06/15 02:23:50;;;;;;;9.52;3.80;;;;;;;13.92;77.46;98949.22;4999895;28;20626;-89
2022/06/15 02:26:18;;;;;;;10.52;3.90;;;;;;;13.88;76.74;98939.28;4991568;28;20058;-88
2022/06/15 02:28:51;;;;;;;9.10;3.30;;;;;;;14.01;76.61;98965.59;4997857;28;20109;-88
2022/06/15 02:31:19;;;;;;;6.68;3.67;;;;;;;13.90;76.81;98946.00;4992973;28;20125;-88
2022/06/15 02:33:54;;;;;;;7.00;3.92;;;;;;;14.01;76.84;98958.16;4976449;28;20455;-88
2022/06/15 02:36:24;;;;;;;10.20;4.00;;;;;;;13.92;75.90;98942.94;4967792;28;20039;-87
2022/06/15 02:38:51;;;;;;;12.75;3.95;;;;;;;13.93;76.72;98939.81;5005326;28;20049;-88
2022/06/15 02:41:20;;;;;;;7.40;3.35;;;;;;;14.03;75.98;98946.81;5019356;28;20076;-87
2022/06/15 02:43:52;;;;;;;10.52;3.38;;;;;;;13.96;75.98;98935.59;5036131;28;20033;-87
2022/06/15 02:46:20;;;;;;;6.72;3.83;;;;;;;14.07;75.91;98944.97;5036164;28;20076;-88
2022/06/15 02:48:50;;;;;;;8.32;3.95;;;;;;;14.01;75.59;98947.16;5036000;28;20044;-88
2022/06/15 02:51:24;;;;;;;10.50;4.20;;;;;;;14.14;75.93;98971.88;5035256;28;20135;-87
2022/06/15 02:54:07;;;;;;;9.60;3.65;;;;;;;13.98;75.73;98942.34;5036276;28;20060;-88
2022/06/15 02:56:37;;;;;;;11.85;3.92;;;;;;;14.06;75.60;98954.38;5035771;28;20041;-88
2022/06/15 02:59:06;;;;;;;11.00;3.10;;;;;;;14.04;74.61;98957.47;5019493;28;20045;-88
2022/06/15 03:01:38;;;;;;;12.32;3.75;;;;;;;14.03;74.40;98952.31;5035599;28;20504;-89
2022/06/15 03:04:06;;;;;;;8.18;3.53;;;;;;;14.04;74.79;98940.19;4993401;28;20468;-88
2022/06/15 03:06:32;;;;;;;9.73;2.93;;;;;;;14.11;73.27;98954.16;4993428;28;20045;-88
2022/06/15 03:09:07;;;;;;;9.82;3.08;;;;;;;14.02;72.93;98939.72;5012217;28;20042;-88
2022/06/15 03:11:47;;;;;;;10.60;3.05;;;;;;;14.18;73.79;98948.88;5012310;28;20042;-88
2022/06/15 03:14:34;;;;;;;7.82;2.50;;;;;;;14.19;71.79;98963.41;5013820;28;20500;-87
2022/06/15 03:17:03;;;;;;;6.45;2.80;;;;;;;14.24;72.13;98961.22;5012308;28;20037;-87
2022/06/15 03:19:45;;;;;;;8.63;2.97;;;;;;;14.25;71.05;98964.78;5028554;28;20049;-86
2022/06/15 03:22:11;;;;;;;7.55;2.72;;;;;;;14.20;71.64;98954.00;5013249;28;20038;-88
2022/06/15 03:24:40;;;;;;;8.55;2.97;;;;;;;14.23;72.14;98951.38;4995987;28;20037;-88
2022/06/15 03:27:09;;;;;;;8.10;2.80;;;;;;;14.08;70.90;98930.91;5012277;28;20407;-88
2022/06/15 03:29:37;;;;;;;10.48;2.90;;;;;;;14.12;71.93;98919.22;4995289;28;20191;-87
2022/06/15 03:32:08;;;;;;;7.10;2.80;;;;;;;14.30;71.15;98950.78;5012087;28;20042;-89
2022/06/15 03:34:46;;;;;;;11.43;2.50;;;;;;;14.34;70.96;98958.00;4994999;28;20042;-87
2022/06/15 03:37:12;;;;;;;5.07;2.70;;;;;;;14.40;71.13;98969.53;5012499;28;20185;-90
2022/06/15 03:39:41;;;;;;;6.22;2.90;;;;;;;14.30;70.98;98945.28;5028484;28;20472;-89
2022/06/15 03:42:22;;;;;;;9.23;2.63;;;;;;;14.46;70.90;98968.16;5012240;28;20042;-88
2022/06/15 03:44:49;;;;;;;4.80;2.50;;;;;;;14.42;70.87;98952.72;4995472;28;20041;-89
2022/06/15 03:47:18;;;;;;;6.65;2.75;;;;;;;14.36;70.95;98945.84;5012270;28;20042;-88
2022/06/15 03:49:48;;;;;;;10.32;2.92;;;;;;;14.47;70.42;98956.03;5011243;28;20137;-87
2022/06/15 03:52:16;;;;;;;5.97;2.80;;;;;;;14.53;70.27;98962.91;4995723;28;20411;-88
2022/06/15 03:54:43;;;;;;;9.60;2.88;;;;;;;14.71;70.08;98968.16;5012805;28;20095;-89
2022/06/15 03:57:12;;;;;;;5.10;2.40;;;;;;;14.77;68.20;98967.56;5011611;28;20121;-88
2022/06/15 03:59:39;;;;;;;6.18;2.50;;;;;;;14.83;68.37;98976.34;5027831;28;20041;-88
2022/06/15 04:02:28;;;;;;;8.73;2.35;;;;;;;14.62;67.45;98948.22;5026190;28;20052;-88
2022/06/15 04:04:57;;;;;;;5.70;2.33;;;;;;;14.67;67.71;98980.97;5035859;28;20045;-87
2022/06/15 04:10:13;;;;;;;4.70;2.53;;;;;;;14.64;68.51;98977.00;5032255;28;20037;-88
2022/06/15 04:12:42;;;;;;;12.38;2.55;;;;;;;14.71;67.67;98982.69;5037759;28;20049;-88
2022/06/15 04:15:09;;;;;;;5.22;2.65;;;;;;;14.71;67.68;98984.66;5040994;28;20135;-89
2022/06/15 04:17:39;;;;;;;16.48;2.40;;;;;;;14.46;66.85;98937.91;5021255;28;20067;-88
2022/06/15 04:23:08;;;;;;;6.60;2.30;;;;;;;14.77;66.81;98972.25;5039157;28;20033;-87
2022/06/15 04:25:40;;;;;;;6.65;2.42;;;;;;;14.83;67.54;98967.28;5020126;28;20102;-88
2022/06/15 04:28:09;;;;;;;7.55;2.28;;;;;;;15.00;66.69;98981.56;5021483;28;20060;-88
2022/06/15 04:30:37;;;;;;;8.07;1.95;;;;;;;15.00;66.26;98969.75;5034175;28;20498;-88
2022/06/15 04:33:04;;;;;;;10.13;2.28;;;;;;;15.10;66.30;98983.03;5017763;28;20036;-88
2022/06/15 04:35:34;;;;;;;8.35;2.17;;;;;;;15.08;65.22;98955.03;5033426;28;20175;-89
2022/06/15 04:38:04;;;;;;;7.57;2.05;;;;;;;15.05;64.44;98964.00;5034201;28;20041;-87
2022/06/15 04:40:37;;;;;;;9.07;2.00;;;;;;;15.18;64.82;98984.81;5017581;28;20044;-89
2022/06/15 04:43:08;;;;;;;5.38;2.38;;;;;;;15.12;65.12;98968.88;5051587;28;20037;-89
2022/06/15 04:45:35;;;;;;;8.82;2.13;;;;;;;14.98;66.10;98933.53;5034218;28;20206;-87
2022/06/15 04:48:09;;;;;;;4.03;2.00;;;;;;;15.19;64.68;98982.84;5034549;28;20131;-88
2022/06/15 04:50:37;;;;;;;5.35;2.00;;;;;;;15.03;63.13;98991.06;5033342;28;20521;-89
2022/06/15 04:53:05;;;;;;;5.72;2.20;;;;;;;14.76;63.93;98960.44;5037526;28;20124;-89
2022/06/15 04:55:34;;;;;;;2.40;1.70;;;;;;;14.95;64.07;98979.06;5041994;28;20043;-89
2022/06/15 04:58:02;;;;;;;5.03;2.05;;;;;;;15.12;64.76;98972.44;5055252;28;20049;-89
2022/06/15 05:00:36;;;;;;;4.63;1.90;;;;;;;14.95;63.46;98970.78;5033772;28;20180;-88
2022/06/15 05:03:03;;;;;;;3.30;1.70;;;;;;;15.10;63.87;98976.69;5033444;28;20103;-87
2022/06/15 05:05:30;;;;;;;10.23;2.17;;;;;;;15.07;63.41;98953.44;5051606;28;20494;-88
2022/06/15 05:07:56;;;;;;;8.98;2.17;;;;;;;15.14;64.25;98958.34;5017940;28;20029;-88
2022/06/15 05:10:24;;;;;;;6.17;2.33;;;;;;;15.16;63.27;98964.28;5016887;28;20668;-88
2022/06/15 05:12:52;;;;;;;6.95;1.75;;;;;;;15.18;62.78;98948.22;5034028;28;20379;-89
2022/06/15 05:15:21;;;;;;;6.22;1.80;;;;;;;15.26;63.18;98966.50;5017416;28;20045;-88
2022/06/15 05:17:52;;;;;;;7.88;2.35;;;;;;;15.24;62.79;98952.31;5051475;28;20080;-88
2022/06/15 05:20:20;;;;;;;8.88;2.10;;;;;;;15.60;63.08;98975.28;5033497;28;20041;-88
2022/06/15 05:22:52;;;;;;;6.43;1.90;;;;;;;15.66;62.16;98952.66;5015332;28;20461;-87
2022/06/15 05:25:22;;;;;;;5.13;1.88;;;;;;;15.80;61.45;98968.72;5033393;28;20060;-87
2022/06/15 05:27:49;;;;;;;3.90;1.65;;;;;;;15.71;61.66;98970.88;5033512;28;20442;-88
2022/06/15 05:30:16;;;;;;;5.40;1.90;;;;;;;15.63;61.65;98980.06;5033174;28;20056;-88
2022/06/15 05:32:43;;;;;;;4.00;1.52;;;;;;;15.36;61.38;98971.50;5033310;28;20091;-87
2022/06/15 05:35:09;;;;;;;6.93;1.90;;;;;;;15.28;61.69;98970.53;5033391;28;20068;-88
2022/06/15 05:37:36;;;;;;;5.55;1.52;;;;;;;15.37;61.51;98988.84;5051230;28;20044;-86
2022/06/15 05:40:03;;;;;;;7.03;1.70;;;;;;;15.36;61.43;98957.72;5032860;28;20044;-89
2022/06/15 05:42:30;;;;;;;4.85;1.65;;;;;;;15.68;61.82;98966.84;5032870;28;20494;-89
2022/06/15 05:45:02;;;;;;;8.38;1.80;;;;;;;15.73;60.41;98968.56;5016989;28;20049;-88
2022/06/15 05:47:36;;;;;;;4.82;1.70;;;;;;;15.86;59.27;98985.78;5018198;28;20477;-88
2022/06/15 05:50:21;;;;;;;4.32;1.50;;;;;;;15.86;58.81;98991.28;5054416;28;20049;-88
2022/06/15 05:53:04;;;;;;;7.32;1.70;;;;;;;16.12;61.55;98971.44;5035766;28;20124;-89
2022/06/15 05:55:31;;;;;;;8.73;1.65;;;;;;;16.30;57.92;98972.66;5038765;28;20127;-89
2022/06/15 05:57:57;;;;;;;3.70;1.60;;;;;;;17.03;60.02;98984.91;5017622;28;20041;-89
2022/06/15 06:00:25;;;;;;;;;;;;;;;17.04;58.60;98991.22;5048844;28;20041;-90
2022/06/15 06:02:52;;;;;;;4.90;1.67;;;;;;;17.24;58.32;98967.94;5036926;28;19987;-90
2022/06/15 06:05:18;;;;;;;7.90;1.70;;;;;;;17.25;55.97;98977.84;5036606;28;20033;-89
2022/06/15 06:07:44;;;;;;;6.27;1.73;;;;;;;17.28;57.33;98962.47;5053537;28;20043;-90
2022/06/15 06:10:10;;;;;;;8.03;1.53;;;;;;;17.30;54.94;98987.78;5036946;28;20131;-89
2022/06/15 06:12:37;;;;;;;2.92;1.60;;;;;;;17.21;55.46;98951.28;5054704;28;20037;-90
2022/06/15 06:15:04;;;;;;;3.92;1.63;;;;;;;17.73;54.79;98994.06;5033363;28;20041;-89
2022/06/15 06:17:30;;;;;;;3.47;1.60;;;;;;;17.91;57.00;98961.22;5054619;28;20044;-90
2022/06/15 06:19:56;;;;;;;7.00;1.50;;;;;;;18.12;54.97;98997.53;5053868;28;20044;-89
2022/06/15 06:22:23;;;;;;;;;;;;;;;18.66;55.64;99001.06;5053159;28;20103;-88
2022/06/15 06:24:49;;;;;;;5.53;1.52;;;;;;;18.19;55.07;98963.63;5036532;28;20362;-89
2022/06/15 06:27:17;;;;;;;12.77;1.80;;;;;;;18.39;54.84;98992.00;5033557;28;20032;-88
2022/06/15 06:29:43;;;;;;;8.27;1.90;;;;;;;18.58;55.35;99002.16;5035542;28;20623;-86
2022/06/15 06:32:14;;;;;;;7.82;1.48;;;;;;;17.81;50.57;98982.00;5036309;28;20141;-89
2022/06/15 06:34:40;;;;;;;3.97;1.42;;;;;;;17.77;52.83;98989.44;5034850;28;20037;-86
2022/06/15 06:37:07;;;;;;;1.17;1.08;;;;;;;17.72;51.52;98996.03;5042024;28;20090;-87
2022/06/15 06:39:34;;;;;;;2.00;1.17;;;;;;;17.91;51.32;99006.25;5052834;28;20045;-89
2022/06/15 06:42:04;;;;;;;5.68;1.48;;;;;;;17.75;50.90;98983.47;5034763;28;20044;-89
2022/06/15 06:44:34;;;;;;;3.53;1.20;;;;;;;17.96;50.30;98986.59;5053853;28;20053;-87
2022/06/15 06:47:01;;;;;;;8.13;1.20;;;;;;;17.98;51.21;98986.22;5035555;28;20064;-86
2022/06/15 06:49:29;;;;;;;6.32;1.85;;;;;;;18.05;51.79;98989.91;5036120;28;20131;-87
2022/06/15 06:51:57;;;;;;;9.45;2.13;;;;;;;17.83;52.74;98985.19;5053498;28;20040;-89
2022/06/15 06:54:23;;;;;;;1.55;1.27;;;;;;;17.85;52.01;98996.69;5039071;28;20163;-87
2022/06/15 06:56:56;;;;;;;5.57;1.48;;;;;;;17.67;52.88;98965.94;5033293;28;20037;-87
2022/06/15 06:59:42;;;;;;;7.45;1.60;;;;;;;17.59;52.51;98965.03;5048701;28;20060;-86
2022/06/15 07:02:10;;;;;;;7.50;1.60;;;;;;;17.50;53.07;98964.47;5028603;28;20053;-87
2022/06/15 07:04:36;;;;;;;4.63;1.77;;;;;;;17.21;53.79;98951.28;5018810;28;20049;-88
2022/06/15 07:07:03;;;;;;;11.90;2.38;;;;;;;17.30;53.23;99009.88;5035514;28;20118;-88
2022/06/15 07:09:30;;;;;;;10.93;1.80;;;;;;;16.95;53.34;98991.41;5018834;28;20052;-87
2022/06/15 07:11:56;;;;;;;3.78;1.33;;;;;;;17.13;53.87;99011.13;5035002;28;20076;-87
2022/06/15 07:14:22;;;;;;;7.30;1.40;;;;;;;17.09;53.13;98977.91;5034978;28;20045;-87
2022/06/15 07:16:49;;;;;;;2.53;1.27;;;;;;;17.48;52.59;98999.16;5034556;28;20072;-89
2022/06/15 07:19:15;;;;;;;4.30;1.90;;;;;;;17.61;53.57;98979.28;5035274;28;20051;-87
2022/06/15 07:21:41;;;;;;;;;;;;;;;17.93;51.80;99022.50;5035547;28;20136;-86
2022/06/15 07:24:08;;;;;;;3.23;1.33;;;;;;;18.04;51.87;99018.72;5018421;28;20079;-88
2022/06/15 07:26:42;;;;;;;1.80;1.30;;;;;;;18.14;50.74;99014.53;5018752;28;20560;-86
2022/06/15 07:29:11;;;;;;;2.78;1.40;;;;;;;17.76;51.32;99001.63;5052639;28;20469;-86
2022/06/15 07:31:41;;;;;;;12.05;2.42;;;;;;;18.09;52.18;99017.63;5034741;28;20127;-86
2022/06/15 07:34:09;;;;;;;2.42;1.30;;;;;;;18.13;51.12;99012.94;5035217;28;20049;-86
2022/06/15 07:36:36;;;;;;;;;;;;;;;18.16;50.91;99028.81;5033343;28;20529;-86
2022/06/15 07:39:04;;;;;;;25.15;11.95;;;;;;;18.14;51.79;99022.03;5049763;28;20324;-85
2022/06/15 07:41:30;;;;;;;17.75;8.75;;;;;;;18.21;51.61;99016.63;5050865;28;20040;-86
2022/06/15 07:43:57;;;;;;;3.25;1.77;;;;;;;18.13;50.92;99028.75;5034112;28;20041;-86
2022/06/15 07:46:24;;;;;;;6.32;1.48;;;;;;;17.99;51.05;99027.34;5050943;28;20122;-86
2022/06/15 07:52:02;;;;;;;3.60;1.63;;;;;;;18.08;51.84;99027.91;5050317;28;20045;-86
2022/06/15 07:54:28;;;;;;;3.45;1.40;;;;;;;18.26;50.38;99046.75;5034676;28;20178;-88
2022/06/15 07:56:55;;;;;;;14.55;1.50;;;;;;;18.06;50.70;99021.94;5033275;28;20049;-89
2022/06/15 07:59:23;;;;;;;4.15;1.45;;;;;;;18.12;50.15;99036.25;5051549;28;20052;-89
2022/06/15 08:01:50;;;;;;;6.25;1.42;;;;;;;18.06;50.01;99032.19;5051866;28;20128;-88
2022/06/15 08:04:17;;;;;;;4.75;1.70;;;;;;;17.84;52.31;98984.03;5030880;28;20053;-88
2022/06/15 08:06:58;;;;;;;5.75;1.40;;;;;;;18.15;51.92;99020.88;5034209;28;20041;-90
2022/06/15 08:09:33;;;;;;;4.88;1.40;;;;;;;18.17;51.57;99008.25;5034368;28;20049;-87
2022/06/15 08:12:12;;;;;;;3.65;1.48;;;;;;;18.36;50.42;99025.94;5032910;28;20037;-88
2022/06/15 08:14:53;;;;;;;5.72;1.50;;;;;;;18.35;50.52;99005.78;5051733;28;20494;-86
2022/06/15 08:17:32;;;;;;;4.50;1.50;;;;;;;18.44;49.96;99022.94;5051279;28;20131;-86
2022/06/15 08:20:05;;;;;;;8.43;1.55;;;;;;;18.31;49.99;99005.72;5034261;28;20044;-87
2022/06/15 08:22:34;;;;;;;4.38;1.30;;;;;;;18.46;50.42;99005.94;5050914;28;20041;-86
2022/06/15 08:25:02;;;;;;;2.38;1.10;;;;;;;18.54;48.54;99016.75;5033731;28;20107;-85
2022/06/15 08:27:29;;;;;;;8.43;1.50;;;;;;;19.42;49.45;99051.53;5049366;28;20040;-86
2022/06/15 08:29:55;;;;;;;4.10;1.30;;;;;;;19.93;50.64;99006.53;5051439;28;20251;-86
2022/06/15 08:32:22;;;;;;;8.50;1.63;;;;;;;20.81;47.76;99048.41;5034280;28;20041;-86
2022/06/15 08:34:49;;;;;;;5.95;1.40;;;;;;;20.60;44.67;99036.00;5051816;28;20049;-86
2022/06/15 08:37:18;;;;;;;5.85;1.65;;;;;;;20.92;45.94;99040.13;5040713;28;20099;-85
2022/06/15 08:39:45;;;;;;;5.00;1.20;;;;;;;20.56;43.79;99018.50;5033144;28;20060;-87
2022/06/15 08:42:48;;;;;;;2.55;1.67;;;;;;;20.45;45.64;99037.03;5033232;28;20094;-87
2022/06/15 08:45:21;;;;;;;14.75;1.65;;;;;;;20.75;43.33;99061.06;5032114;28;20037;-86
2022/06/15 08:48:07;;;;;;;6.60;1.80;;;;;;;20.99;43.86;99057.66;5026093;28;20055;-86
2022/06/15 08:50:55;;;;;;;13.02;1.60;;;;;;;20.95;43.22;99054.03;5050867;28;20091;-87
2022/06/15 08:53:30;;;;;;;7.28;1.92;;;;;;;20.94;43.53;99054.44;5051512;28;20057;-86
2022/06/15 08:56:14;;;;;;;5.10;1.70;;;;;;;20.93;43.62;99038.97;5020435;28;20049;-84
2022/06/15 08:59:07;;;;;;;6.93;1.65;;;;;;;21.15;44.16;99040.63;5036966;28;20045;-85
2022/06/15 09:01:50;;;;;;;5.90;1.52;;;;;;;21.23;43.29;99066.50;5032170;28;20052;-85
2022/06/15 09:04:30;;;;;;;4.93;1.50;;;;;;;21.32;43.44;99055.78;5016031;28;20038;-87
2022/06/15 09:07:44;;;;;;;10.35;1.80;;;;;;;20.95;44.10;99064.34;5049353;28;20033;-87
2022/06/15 09:11:05;;;;;;;15.47;2.00;;;;;;;20.94;44.92;99057.22;4981291;28;20141;-86
2022/06/15 09:13:52;;;;;;;14.02;2.20;;;;;;;20.59;45.20;99019.69;4988277;28;20101;-87
2022/06/15 09:16:27;;;;;;;11.88;1.80;;;;;;;20.72;44.62;99026.53;5046438;28;20033;-84
2022/06/15 09:19:06;;;;;;;5.20;1.63;;;;;;;20.84;43.93;99062.31;5050864;28;20502;-84
2022/06/15 09:21:37;;;;;;;2.67;1.50;;;;;;;20.76;44.11;99057.09;5033709;28;20052;-84
2022/06/15 09:24:25;;;;;;;3.58;1.65;;;;;;;20.96;45.44;99065.94;5037192;28;20514;-86
2022/06/15 09:27:00;;;;;;;7.88;1.90;;;;;;;20.62;45.06;99036.38;5052864;28;20039;-86
2022/06/15 09:29:41;;;;;;;4.60;1.60;;;;;;;20.94;44.39;99057.22;5037399;28;20040;-86
2022/06/15 09:32:30;;;;;;;2.78;1.60;;;;;;;21.22;44.62;99067.66;5031795;28;20040;-85
2022/06/15 09:35:16;;;;;;;4.55;1.75;;;;;;;21.05;42.95;99078.31;5031832;28;20033;-85
2022/06/15 09:37:50;;;;;;;10.27;1.50;;;;;;;21.20;44.11;99084.75;5051931;28;20037;-85
2022/06/15 09:40:18;;;;;;;5.90;1.70;;;;;;;21.23;44.46;99072.84;5054465;28;20040;-84
2022/06/15 09:43:03;;;;;;;;;;;;;;;21.22;44.59;99079.56;5021656;28;20106;-83
2022/06/15 09:45:49;;;;;;;7.68;2.10;;;;;;;21.34;44.31;99067.31;5051698;28;20082;-85
2022/06/15 09:48:28;;;;;;;4.13;1.73;;;;;;;21.39;42.96;99082.84;5025757;28;20046;-86
2022/06/15 09:51:14;;;;;;;3.65;1.60;;;;;;;21.35;43.61;99071.72;5032521;28;20061;-87
2022/06/15 09:54:06;;;;;;;9.40;1.60;;;;;;;20.90;43.71;99050.84;5015300;28;20077;-86
2022/06/15 09:56:33;;;;;;;9.10;1.60;;;;;;;20.72;43.60;99059.84;5026627;28;20088;-86
2022/06/15 09:59:08;;;;;;;1.75;1.50;;;;;;;20.41;44.83;99078.66;5031734;28;20458;-86
2022/06/15 10:01:41;;;;;;;6.55;1.73;;;;;;;20.70;43.33;99083.66;5031478;28;20173;-88
2022/06/15 10:04:25;;;;;;;6.82;1.92;;;;;;;20.84;44.53;99039.28;5030747;28;20144;-88
2022/06/15 10:06:57;;;;;;;5.28;1.50;;;;;;;21.07;43.00;99069.59;5030959;28;20041;-88
2022/06/15 10:09:28;;;;;;;12.68;1.80;;;;;;;21.21;44.20;99050.19;5013651;28;20076;-87
2022/06/15 10:12:55;;;;;;;7.13;1.70;;;;;;;21.53;42.92;99060.66;5014611;28;20077;-87
2022/06/15 10:14:50;;;;;;;7.82;1.70;;;;;;;21.42;42.62;99082.84;5028942;28;20045;-85
2022/06/15 10:17:31;;;;;;;8.50;1.67;;;;;;;21.56;42.44;99093.25;5030249;28;20058;-85
2022/06/15 10:19:59;;;;;;;8.63;1.58;;;;;;;21.33;43.80;99086.00;5029690;28;20072;-86
2022/06/15 10:22:30;;;;;;;8.00;2.13;;;;;;;21.04;43.03;99078.69;5015946;28;20060;-87
2022/06/15 10:24:59;;;;;;;15.32;1.70;;;;;;;20.98;43.29;99088.59;5033099;28;20046;-85
2022/06/15 10:27:33;;;;;;;10.18;1.77;;;;;;;21.25;44.28;99087.13;5017738;28;20069;-85
2022/06/15 10:30:08;;;;;;;8.05;2.20;;;;;;;21.33;43.57;99091.56;5013302;28;20047;-86
2022/06/15 10:32:57;;;;;;;9.60;1.67;;;;;;;21.33;43.77;99074.88;5031940;28;20414;-84
2022/06/15 10:35:35;;;;;;;7.03;1.80;;;;;;;20.95;43.33;99073.47;5000080;28;20044;-86
2022/06/15 10:38:09;;;;;;;15.30;2.20;;;;;;;20.67;44.31;99070.56;5034296;28;20051;-85
2022/06/15 10:40:39;;;;;;;3.22;1.55;;;;;;;20.58;44.30;99046.69;5016418;28;20112;-91
2022/06/15 10:43:31;;;;;;;7.00;1.75;;;;;;;20.73;43.46;99092.03;5049715;28;20188;-90
2022/06/15 10:46:05;;;;;;;15.02;1.88;;;;;;;20.29;44.32;99061.50;5019777;28;20056;-85
2022/06/15 10:48:42;;;;;;;4.97;1.80;;;;;;;20.47;45.59;99106.06;5030214;28;20037;-84
2022/06/15 10:51:32;;;;;;;3.60;1.70;;;;;;;20.45;45.36;99108.44;5032655;28;20080;-84
2022/06/15 10:54:33;;;;;;;5.97;1.90;;;;;;;20.32;45.28;99105.94;5033604;28;20037;-85
2022/06/15 11:03:25;;;;;;;9.68;2.70;;;;;;;20.84;43.89;99119.88;5033110;28;20037;-85
2022/06/15 11:05:54;;;;;;;6.18;1.85;;;;;;;20.47;43.42;99094.97;5039509;28;20058;-85
2022/06/15 11:08:29;;;;;;;16.15;2.67;;;;;;;20.26;45.01;99104.69;5012555;28;20482;-88
2022/06/15 11:11:24;;;;;;;8.30;2.70;;;;;;;20.42;45.35;99127.44;4998504;28;20042;-85
2022/06/15 11:14:07;;;;;;;17.10;2.50;;;;;;;20.42;45.29;99096.09;5026202;28;20534;-86
2022/06/15 11:19:26;;;;;;;12.30;2.00;;;;;;;20.46;45.23;99110.03;5028861;28;20045;-84
2022/06/15 11:22:15;;;;;;;8.60;2.20;;;;;;;20.37;46.25;99116.72;5012403;28;20767;-88
2022/06/15 11:25:07;;;;;;;5.40;1.98;;;;;;;20.15;45.36;99112.13;5008267;28;20053;-86
2022/06/15 11:27:42;;;;;;;6.50;2.88;;;;;;;20.12;45.59;99099.81;5010176;28;20686;-84
2022/06/15 11:30:27;;;;;;;16.10;3.85;;;;;;;20.03;47.59;99106.84;4991866;28;20046;-85
2022/06/15 11:33:00;;;;;;;7.70;2.72;;;;;;;20.41;47.11;99097.31;5028640;28;20041;-86
2022/06/15 11:35:33;;;;;;;16.33;3.15;;;;;;;20.75;45.27;99105.50;5031942;28;20096;-85
2022/06/15 11:38:24;;;;;;;9.70;2.97;;;;;;;20.94;43.37;99107.22;5033034;28;20454;-85
2022/06/15 11:41:01;;;;;;;8.00;2.83;;;;;;;20.84;42.72;99092.09;5032961;28;20045;-85
2022/06/15 11:43:36;;;;;;;4.57;2.80;;;;;;;21.21;45.91;99099.44;5013937;28;20042;-88
2022/06/15 11:46:17;;;;;;;5.70;3.05;;;;;;;21.00;41.69;99105.69;5028415;28;20041;-86
2022/06/15 11:49:04;;;;;;;6.28;2.15;;;;;;;20.79;42.39;99112.69;5012136;28;20042;-87
2022/06/15 11:51:47;;;;;;;12.82;2.20;;;;;;;20.47;43.61;99106.06;5011301;28;20448;-88
2022/06/15 11:54:33;;;;;;;8.90;3.35;;;;;;;20.21;43.26;99109.81;5012426;28;20061;-85
2022/06/15 11:57:41;;;;;;;7.32;2.67;;;;;;;20.09;43.95;99125.56;5011185;28;20050;-86
2022/06/15 12:00:20;;;;;;;9.80;2.08;;;;;;;19.80;44.24;99116.16;5011485;28;20542;-86
2022/06/15 12:03:21;;;;;;;12.77;3.90;;;;;;;19.74;44.68;99125.22;5013345;28;20046;-86
2022/06/15 12:06:10;;;;;;;6.57;2.50;;;;;;;19.55;45.21;99120.59;5021191;28;20049;-86
2022/06/15 12:08:55;;;;;;;7.90;3.30;;;;;;;19.69;46.93;99134.66;5014375;28;20088;-86
2022/06/15 12:14:19;;;;;;;9.57;2.92;;;;;;;19.43;45.49;99116.88;5029730;28;20056;-86
2022/06/15 12:16:57;;;;;;;7.47;3.10;;;;;;;19.36;46.50;99108.47;5014431;28;20042;-85
2022/06/15 12:19:43;;;;;;;13.98;2.83;;;;;;;19.49;46.18;99120.91;5030731;28;20046;-86
2022/06/15 12:22:27;;;;;;;11.52;2.70;;;;;;;19.75;46.43;99133.13;5035039;28;20045;-89
2022/06/15 12:25:18;;;;;;;;;;;;;;;19.93;46.27;99134.13;5035117;28;20048;-89
2022/06/15 12:28:01;;;;;;;8.52;3.35;;;;;;;20.67;45.57;99126.09;5031551;28;19928;-88
2022/06/15 12:30:39;;;;;;;12.07;3.05;;;;;;;20.87;46.10;99121.88;5030577;28;20065;-86